sensor_id;sensor_type;location;lat;lon;timestamp;temperature;humidity
15991;DHT22;8100;50.994;4.538;2022-08-07T00:01:12;13.20;99.90
15991;DHT22;8100;50.994;4.538;2022-08-07T00:03:58;13.20;99.90
15991;DHT22;8100;50.994;4.538;2022-08-07T00:06:45;13.20;99.90
15991;DHT22;8100;50.994;4.538;2022-08-07T00:09:31;13.10;99.90
15991;DHT22;8100;50.994;4.538;2022-08-07T00:12:18;13.10;99.90
15991;DHT22;8100;50.994;4.538;2022-08-07T00:15:07;13.10;99.90
15991;DHT22;8100;50.994;4.538;2022-08-07T00:17:54;13.00;99.90
15991;DHT22;8100;50.994;4.538;2022-08-07T00:20:41;13.00;99.90
15991;DHT22;8100;50.994;4.538;2022-08-07T00:23:27;12.90;99.90
15991;DHT22;8100;50.994;4.538;2022-08-07T00:26:13;12.90;99.90
15991;DHT22;8100;50.994;4.538;2022-08-07T00:29:00;12.90;99.90
15991;DHT22;8100;50.994;4.538;2022-08-07T00:31:47;12.90;99.90
15991;DHT22;8100;50.994;4.538;2022-08-07T00:34:34;12.80;99.90
15991;DHT22;8100;50.994;4.538;2022-08-07T00:37:20;12.80;99.90
15991;DHT22;8100;50.994;4.538;2022-08-07T00:40:00;12.70;99.90
15991;DHT22;8100;50.994;4.538;2022-08-07T00:42:27;12.80;99.90
15991;DHT22;8100;50.994;4.538;2022-08-07T00:44:54;12.70;99.90
15991;DHT22;8100;50.994;4.538;2022-08-07T00:47:40;12.70;99.90
15991;DHT22;8100;50.994;4.538;2022-08-07T00:50:26;12.70;99.90
15991;DHT22;8100;50.994;4.538;2022-08-07T00:53:12;12.60;99.90
15991;DHT22;8100;50.994;4.538;2022-08-07T00:55:59;12.70;99.90
15991;DHT22;8100;50.994;4.538;2022-08-07T00:58:46;12.60;99.90
15991;DHT22;8100;50.994;4.538;2022-08-07T01:01:32;12.50;99.90
15991;DHT22;8100;50.994;4.538;2022-08-07T01:04:19;12.50;99.90
15991;DHT22;8100;50.994;4.538;2022-08-07T01:07:06;12.50;99.90
15991;DHT22;8100;50.994;4.538;2022-08-07T01:09:34;12.50;99.90
15991;DHT22;8100;50.994;4.538;2022-08-07T01:12:21;12.40;99.90
15991;DHT22;8100;50.994;4.538;2022-08-07T01:14:54;12.30;99.90
15991;DHT22;8100;50.994;4.538;2022-08-07T01:17:43;12.30;99.90
15991;DHT22;8100;50.994;4.538;2022-08-07T01:20:33;12.30;99.90
15991;DHT22;8100;50.994;4.538;2022-08-07T01:23:25;12.30;99.90
15991;DHT22;8100;50.994;4.538;2022-08-07T01:26:13;12.20;99.90
15991;DHT22;8100;50.994;4.538;2022-08-07T01:28:43;12.10;99.90
15991;DHT22;8100;50.994;4.538;2022-08-07T01:31:28;12.10;99.90
15991;DHT22;8100;50.994;4.538;2022-08-07T01:34:18;12.10;99.90
15991;DHT22;8100;50.994;4.538;2022-08-07T01:37:04;12.10;99.90
15991;DHT22;8100;50.994;4.538;2022-08-07T01:39:42;12.10;99.90
15991;DHT22;8100;50.994;4.538;2022-08-07T01:42:28;12.00;99.90
15991;DHT22;8100;50.994;4.538;2022-08-07T01:44:55;12.10;99.90
15991;DHT22;8100;50.994;4.538;2022-08-07T01:47:41;12.00;99.90
15991;DHT22;8100;50.994;4.538;2022-08-07T01:50:30;12.00;99.90
15991;DHT22;8100;50.994;4.538;2022-08-07T01:53:01;11.90;99.90
15991;DHT22;8100;50.994;4.538;2022-08-07T01:55:54;11.80;99.90
15991;DHT22;8100;50.994;4.538;2022-08-07T01:58:43;11.90;99.90
15991;DHT22;8100;50.994;4.538;2022-08-07T02:01:35;11.80;99.90
15991;DHT22;8100;50.994;4.538;2022-08-07T02:04:29;11.80;99.90
15991;DHT22;8100;50.994;4.538;2022-08-07T02:07:07;11.80;99.90
15991;DHT22;8100;50.994;4.538;2022-08-07T02:09:54;11.80;99.90
15991;DHT22;8100;50.994;4.538;2022-08-07T02:12:44;11.70;99.90
15991;DHT22;8100;50.994;4.538;2022-08-07T02:15:31;11.60;99.90
15991;DHT22;8100;50.994;4.538;2022-08-07T02:18:17;11.60;99.90
15991;DHT22;8100;50.994;4.538;2022-08-07T02:21:05;11.60;99.90
15991;DHT22;8100;50.994;4.538;2022-08-07T02:23:53;11.50;99.90
15991;DHT22;8100;50.994;4.538;2022-08-07T02:26:39;11.50;99.90
15991;DHT22;8100;50.994;4.538;2022-08-07T02:29:26;11.50;99.90
15991;DHT22;8100;50.994;4.538;2022-08-07T02:32:16;11.50;99.90
15991;DHT22;8100;50.994;4.538;2022-08-07T02:35:04;11.50;99.90
15991;DHT22;8100;50.994;4.538;2022-08-07T02:37:34;11.50;99.90
15991;DHT22;8100;50.994;4.538;2022-08-07T02:40:20;11.40;99.90
15991;DHT22;8100;50.994;4.538;2022-08-07T02:43:08;11.40;99.90
15991;DHT22;8100;50.994;4.538;2022-08-07T02:45:56;11.30;99.90
15991;DHT22;8100;50.994;4.538;2022-08-07T02:48:44;11.30;99.90
15991;DHT22;8100;50.994;4.538;2022-08-07T02:51:33;11.30;99.90
15991;DHT22;8100;50.994;4.538;2022-08-07T02:54:23;11.30;99.90
15991;DHT22;8100;50.994;4.538;2022-08-07T02:57:12;11.30;99.90
15991;DHT22;8100;50.994;4.538;2022-08-07T03:00:00;11.20;99.90
15991;DHT22;8100;50.994;4.538;2022-08-07T03:02:48;11.20;99.90
15991;DHT22;8100;50.994;4.538;2022-08-07T03:05:38;11.20;99.90
15991;DHT22;8100;50.994;4.538;2022-08-07T03:08:24;11.20;99.90
15991;DHT22;8100;50.994;4.538;2022-08-07T03:11:00;11.20;99.90
15991;DHT22;8100;50.994;4.538;2022-08-07T03:13:28;11.20;99.90
15991;DHT22;8100;50.994;4.538;2022-08-07T03:16:14;11.30;99.90
15991;DHT22;8100;50.994;4.538;2022-08-07T03:19:02;11.20;99.90
15991;DHT22;8100;50.994;4.538;2022-08-07T03:21:29;11.20;99.90
15991;DHT22;8100;50.994;4.538;2022-08-07T03:24:15;11.20;99.90
15991;DHT22;8100;50.994;4.538;2022-08-07T03:27:04;11.20;99.90
15991;DHT22;8100;50.994;4.538;2022-08-07T03:29:51;11.20;99.90
15991;DHT22;8100;50.994;4.538;2022-08-07T03:32:40;11.10;99.90
15991;DHT22;8100;50.994;4.538;2022-08-07T03:35:28;11.00;99.90
15991;DHT22;8100;50.994;4.538;2022-08-07T03:38:14;11.00;99.90
15991;DHT22;8100;50.994;4.538;2022-08-07T03:41:01;11.00;99.90
15991;DHT22;8100;50.994;4.538;2022-08-07T03:43:48;10.90;99.90
15991;DHT22;8100;50.994;4.538;2022-08-07T03:46:25;11.00;99.90
15991;DHT22;8100;50.994;4.538;2022-08-07T03:49:13;10.90;99.90
15991;DHT22;8100;50.994;4.538;2022-08-07T03:52:00;10.80;99.90
15991;DHT22;8100;50.994;4.538;2022-08-07T03:54:28;10.80;99.90
15991;DHT22;8100;50.994;4.538;2022-08-07T03:57:14;10.80;99.90
15991;DHT22;8100;50.994;4.538;2022-08-07T04:00:00;10.80;99.90
15991;DHT22;8100;50.994;4.538;2022-08-07T04:02:28;10.90;99.90
15991;DHT22;8100;50.994;4.538;2022-08-07T04:05:14;10.80;99.90
15991;DHT22;8100;50.994;4.538;2022-08-07T04:08:02;10.80;99.90
15991;DHT22;8100;50.994;4.538;2022-08-07T04:10:49;10.80;99.90
15991;DHT22;8100;50.994;4.538;2022-08-07T04:13:17;10.80;99.90
15991;DHT22;8100;50.994;4.538;2022-08-07T04:15:47;10.80;99.90
15991;DHT22;8100;50.994;4.538;2022-08-07T04:18:32;10.80;99.90
15991;DHT22;8100;50.994;4.538;2022-08-07T04:21:15;10.80;99.90
15991;DHT22;8100;50.994;4.538;2022-08-07T04:24:03;10.90;99.90
15991;DHT22;8100;50.994;4.538;2022-08-07T04:26:55;10.80;99.90
15991;DHT22;8100;50.994;4.538;2022-08-07T04:29:22;10.80;99.90
15991;DHT22;8100;50.994;4.538;2022-08-07T04:31:50;10.80;99.90
15991;DHT22;8100;50.994;4.538;2022-08-07T04:34:25;10.80;99.90
15991;DHT22;8100;50.994;4.538;2022-08-07T04:37:13;10.80;99.90
15991;DHT22;8100;50.994;4.538;2022-08-07T04:40:00;10.80;99.90
15991;DHT22;8100;50.994;4.538;2022-08-07T04:42:46;10.80;99.90
15991;DHT22;8100;50.994;4.538;2022-08-07T04:45:37;10.80;99.90
15991;DHT22;8100;50.994;4.538;2022-08-07T04:48:32;10.90;99.90
15991;DHT22;8100;50.994;4.538;2022-08-07T04:51:09;11.00;99.90
15991;DHT22;8100;50.994;4.538;2022-08-07T04:54:02;11.00;99.90
15991;DHT22;8100;50.994;4.538;2022-08-07T04:57:00;11.20;99.90
15991;DHT22;8100;50.994;4.538;2022-08-07T04:59:52;11.30;99.90
15991;DHT22;8100;50.994;4.538;2022-08-07T05:02:47;11.40;99.90
15991;DHT22;8100;50.994;4.538;2022-08-07T05:05:42;11.40;99.90
15991;DHT22;8100;50.994;4.538;2022-08-07T05:08:44;11.50;99.90
15991;DHT22;8100;50.994;4.538;2022-08-07T05:11:37;11.60;99.90
15991;DHT22;8100;50.994;4.538;2022-08-07T05:14:25;11.70;99.90
15991;DHT22;8100;50.994;4.538;2022-08-07T05:17:15;11.80;99.90
15991;DHT22;8100;50.994;4.538;2022-08-07T05:20:03;11.90;99.90
15991;DHT22;8100;50.994;4.538;2022-08-07T05:22:52;12.10;99.90
15991;DHT22;8100;50.994;4.538;2022-08-07T05:25:26;12.20;99.90
15991;DHT22;8100;50.994;4.538;2022-08-07T05:28:13;12.40;99.90
15991;DHT22;8100;50.994;4.538;2022-08-07T05:31:01;12.50;99.90
15991;DHT22;8100;50.994;4.538;2022-08-07T05:33:48;12.60;99.90
15991;DHT22;8100;50.994;4.538;2022-08-07T05:36:36;12.80;99.90
15991;DHT22;8100;50.994;4.538;2022-08-07T05:39:11;13.00;99.90
15991;DHT22;8100;50.994;4.538;2022-08-07T05:41:59;13.10;99.90
15991;DHT22;8100;50.994;4.538;2022-08-07T05:44:45;13.30;99.90
15991;DHT22;8100;50.994;4.538;2022-08-07T05:47:32;13.50;99.90
15991;DHT22;8100;50.994;4.538;2022-08-07T05:50:08;13.70;99.90
15991;DHT22;8100;50.994;4.538;2022-08-07T05:52:54;13.80;99.90
15991;DHT22;8100;50.994;4.538;2022-08-07T05:55:41;14.00;99.90
15991;DHT22;8100;50.994;4.538;2022-08-07T05:58:28;14.20;99.90
15991;DHT22;8100;50.994;4.538;2022-08-07T06:01:17;14.30;99.90
15991;DHT22;8100;50.994;4.538;2022-08-07T06:03:53;14.40;99.90
15991;DHT22;8100;50.994;4.538;2022-08-07T06:06:41;14.60;99.90
15991;DHT22;8100;50.994;4.538;2022-08-07T06:09:27;14.90;99.90
15991;DHT22;8100;50.994;4.538;2022-08-07T06:12:15;15.00;99.90
15991;DHT22;8100;50.994;4.538;2022-08-07T06:15:01;15.10;99.90
15991;DHT22;8100;50.994;4.538;2022-08-07T06:17:41;15.10;99.90
15991;DHT22;8100;50.994;4.538;2022-08-07T06:20:29;15.20;99.90
15991;DHT22;8100;50.994;4.538;2022-08-07T06:23:02;15.30;99.90
15991;DHT22;8100;50.994;4.538;2022-08-07T06:25:48;15.40;99.90
15991;DHT22;8100;50.994;4.538;2022-08-07T06:28:46;15.50;99.90
15991;DHT22;8100;50.994;4.538;2022-08-07T06:31:32;15.70;99.90
15991;DHT22;8100;50.994;4.538;2022-08-07T06:34:18;15.90;99.90
15991;DHT22;8100;50.994;4.538;2022-08-07T06:37:09;16.00;99.90
15991;DHT22;8100;50.994;4.538;2022-08-07T06:39:56;16.20;99.90
15991;DHT22;8100;50.994;4.538;2022-08-07T06:42:45;16.30;99.90
15991;DHT22;8100;50.994;4.538;2022-08-07T06:45:33;16.30;99.90
15991;DHT22;8100;50.994;4.538;2022-08-07T06:48:18;16.40;99.90
15991;DHT22;8100;50.994;4.538;2022-08-07T06:51:08;16.40;99.90
15991;DHT22;8100;50.994;4.538;2022-08-07T06:53:56;16.60;99.90
15991;DHT22;8100;50.994;4.538;2022-08-07T06:56:48;16.80;99.90
15991;DHT22;8100;50.994;4.538;2022-08-07T06:59:17;16.80;99.90
15991;DHT22;8100;50.994;4.538;2022-08-07T07:02:07;16.90;99.90
15991;DHT22;8100;50.994;4.538;2022-08-07T07:04:53;17.10;99.90
15991;DHT22;8100;50.994;4.538;2022-08-07T07:07:39;17.40;99.90
15991;DHT22;8100;50.994;4.538;2022-08-07T07:10:28;17.40;99.90
15991;DHT22;8100;50.994;4.538;2022-08-07T07:12:59;17.60;99.90
15991;DHT22;8100;50.994;4.538;2022-08-07T07:15:49;17.80;99.90
15991;DHT22;8100;50.994;4.538;2022-08-07T07:18:43;17.90;99.90
15991;DHT22;8100;50.994;4.538;2022-08-07T07:21:35;17.90;99.90
15991;DHT22;8100;50.994;4.538;2022-08-07T07:24:23;18.00;99.90
15991;DHT22;8100;50.994;4.538;2022-08-07T07:27:12;18.10;99.90
15991;DHT22;8100;50.994;4.538;2022-08-07T07:30:03;18.10;99.90
15991;DHT22;8100;50.994;4.538;2022-08-07T07:32:51;18.30;99.90
15991;DHT22;8100;50.994;4.538;2022-08-07T07:35:39;18.40;99.90
15991;DHT22;8100;50.994;4.538;2022-08-07T07:38:25;18.40;99.90
15991;DHT22;8100;50.994;4.538;2022-08-07T07:41:08;18.50;99.90
15991;DHT22;8100;50.994;4.538;2022-08-07T07:43:41;18.70;99.90
15991;DHT22;8100;50.994;4.538;2022-08-07T07:46:31;18.70;99.90
15991;DHT22;8100;50.994;4.538;2022-08-07T07:49:19;18.90;99.90
15991;DHT22;8100;50.994;4.538;2022-08-07T07:51:48;19.00;99.90
15991;DHT22;8100;50.994;4.538;2022-08-07T07:54:27;19.20;99.90
15991;DHT22;8100;50.994;4.538;2022-08-07T07:57:02;19.20;99.90
15991;DHT22;8100;50.994;4.538;2022-08-07T07:59:35;19.30;99.90
15991;DHT22;8100;50.994;4.538;2022-08-07T08:02:05;19.50;99.90
15991;DHT22;8100;50.994;4.538;2022-08-07T08:04:32;19.40;99.90
15991;DHT22;8100;50.994;4.538;2022-08-07T08:07:21;19.40;99.90
15991;DHT22;8100;50.994;4.538;2022-08-07T08:10:09;19.40;99.90
15991;DHT22;8100;50.994;4.538;2022-08-07T08:12:57;19.50;99.90
15991;DHT22;8100;50.994;4.538;2022-08-07T08:15:46;19.80;99.90
15991;DHT22;8100;50.994;4.538;2022-08-07T08:18:34;19.70;99.90
15991;DHT22;8100;50.994;4.538;2022-08-07T08:21:21;19.70;99.90
15991;DHT22;8100;50.994;4.538;2022-08-07T08:24:27;20.00;99.90
15991;DHT22;8100;50.994;4.538;2022-08-07T08:27:35;20.30;99.90
15991;DHT22;8100;50.994;4.538;2022-08-07T08:30:23;20.40;99.90
15991;DHT22;8100;50.994;4.538;2022-08-07T08:33:11;20.20;99.90
15991;DHT22;8100;50.994;4.538;2022-08-07T08:35:54;20.20;99.90
15991;DHT22;8100;50.994;4.538;2022-08-07T08:38:42;20.30;99.90
15991;DHT22;8100;50.994;4.538;2022-08-07T08:41:36;20.50;99.90
15991;DHT22;8100;50.994;4.538;2022-08-07T08:44:26;20.50;99.90
15991;DHT22;8100;50.994;4.538;2022-08-07T08:47:13;20.80;99.90
15991;DHT22;8100;50.994;4.538;2022-08-07T08:50:10;20.90;99.90
15991;DHT22;8100;50.994;4.538;2022-08-07T08:53:04;21.00;99.90
15991;DHT22;8100;50.994;4.538;2022-08-07T08:55:54;21.00;99.90
15991;DHT22;8100;50.994;4.538;2022-08-07T08:58:49;21.00;99.90
15991;DHT22;8100;50.994;4.538;2022-08-07T09:01:41;21.10;99.90
15991;DHT22;8100;50.994;4.538;2022-08-07T09:04:26;21.20;99.90
15991;DHT22;8100;50.994;4.538;2022-08-07T09:07:17;21.30;99.90
15991;DHT22;8100;50.994;4.538;2022-08-07T09:09:59;21.60;99.90
15991;DHT22;8100;50.994;4.538;2022-08-07T09:12:47;21.60;99.90
15991;DHT22;8100;50.994;4.538;2022-08-07T09:15:29;21.40;99.90
15991;DHT22;8100;50.994;4.538;2022-08-07T09:18:10;21.50;99.90
15991;DHT22;8100;50.994;4.538;2022-08-07T09:20:47;21.50;99.90
15991;DHT22;8100;50.994;4.538;2022-08-07T09:23:25;21.80;99.90
15991;DHT22;8100;50.994;4.538;2022-08-07T09:26:06;21.70;99.90
15991;DHT22;8100;50.994;4.538;2022-08-07T09:28:39;21.70;99.90
15991;DHT22;8100;50.994;4.538;2022-08-07T09:31:09;21.70;99.90
15991;DHT22;8100;50.994;4.538;2022-08-07T09:33:56;21.90;99.90
15991;DHT22;8100;50.994;4.538;2022-08-07T09:36:30;22.00;99.90
15991;DHT22;8100;50.994;4.538;2022-08-07T09:39:07;22.00;99.90
15991;DHT22;8100;50.994;4.538;2022-08-07T09:41:49;21.90;99.90
15991;DHT22;8100;50.994;4.538;2022-08-07T09:47:19;22.00;99.90
15991;DHT22;8100;50.994;4.538;2022-08-07T09:49:56;22.00;99.90
15991;DHT22;8100;50.994;4.538;2022-08-07T09:52:28;22.30;99.90
15991;DHT22;8100;50.994;4.538;2022-08-07T09:55:05;22.60;99.90
15991;DHT22;8100;50.994;4.538;2022-08-07T09:58:08;22.70;99.90
15991;DHT22;8100;50.994;4.538;2022-08-07T10:00:58;22.80;99.50
15991;DHT22;8100;50.994;4.538;2022-08-07T10:03:45;22.50;99.90
15991;DHT22;8100;50.994;4.538;2022-08-07T10:06:30;22.80;99.90
15991;DHT22;8100;50.994;4.538;2022-08-07T10:12:13;22.70;99.20
15991;DHT22;8100;50.994;4.538;2022-08-07T10:15:07;22.70;99.10
15991;DHT22;8100;50.994;4.538;2022-08-07T10:17:57;22.80;99.90
15991;DHT22;8100;50.994;4.538;2022-08-07T10:20:36;23.10;98.90
15991;DHT22;8100;50.994;4.538;2022-08-07T10:26:22;23.20;97.30
15991;DHT22;8100;50.994;4.538;2022-08-07T10:29:10;23.30;96.70
15991;DHT22;8100;50.994;4.538;2022-08-07T10:31:51;23.00;95.50
15991;DHT22;8100;50.994;4.538;2022-08-07T10:34:32;23.00;95.90
15991;DHT22;8100;50.994;4.538;2022-08-07T10:37:17;22.90;95.30
15991;DHT22;8100;50.994;4.538;2022-08-07T10:40:00;23.10;94.70
15991;DHT22;8100;50.994;4.538;2022-08-07T10:42:35;23.30;92.60
15991;DHT22;8100;50.994;4.538;2022-08-07T10:45:20;23.40;92.50
15991;DHT22;8100;50.994;4.538;2022-08-07T10:48:15;23.30;92.30
15991;DHT22;8100;50.994;4.538;2022-08-07T10:50:52;23.30;91.30
15991;DHT22;8100;50.994;4.538;2022-08-07T10:53:26;23.20;93.80
15991;DHT22;8100;50.994;4.538;2022-08-07T10:56:02;23.30;92.90
15991;DHT22;8100;50.994;4.538;2022-08-07T10:59:00;23.50;93.00
15991;DHT22;8100;50.994;4.538;2022-08-07T11:01:52;23.40;91.30
15991;DHT22;8100;50.994;4.538;2022-08-07T11:04:54;23.20;91.80
15991;DHT22;8100;50.994;4.538;2022-08-07T11:07:48;22.90;94.60
15991;DHT22;8100;50.994;4.538;2022-08-07T11:10:39;22.80;93.40
15991;DHT22;8100;50.994;4.538;2022-08-07T11:13:31;22.90;91.70
15991;DHT22;8100;50.994;4.538;2022-08-07T11:16:24;22.70;92.30
15991;DHT22;8100;50.994;4.538;2022-08-07T11:19:16;23.00;91.50
15991;DHT22;8100;50.994;4.538;2022-08-07T11:22:10;23.30;91.60
15991;DHT22;8100;50.994;4.538;2022-08-07T11:24:50;23.30;90.10
15991;DHT22;8100;50.994;4.538;2022-08-07T11:27:24;23.30;89.30
15991;DHT22;8100;50.994;4.538;2022-08-07T11:29:58;23.50;89.10
15991;DHT22;8100;50.994;4.538;2022-08-07T11:32:32;23.30;85.90
15991;DHT22;8100;50.994;4.538;2022-08-07T11:35:06;23.40;89.80
15991;DHT22;8100;50.994;4.538;2022-08-07T11:37:46;23.70;88.20
15991;DHT22;8100;50.994;4.538;2022-08-07T11:40:24;24.10;87.00
15991;DHT22;8100;50.994;4.538;2022-08-07T11:43:00;24.20;85.40
15991;DHT22;8100;50.994;4.538;2022-08-07T11:45:36;24.00;82.10
15991;DHT22;8100;50.994;4.538;2022-08-07T11:48:19;23.80;80.60
15991;DHT22;8100;50.994;4.538;2022-08-07T11:51:03;23.70;82.20
15991;DHT22;8100;50.994;4.538;2022-08-07T11:53:43;23.90;81.40
15991;DHT22;8100;50.994;4.538;2022-08-07T11:56:24;23.90;83.30
15991;DHT22;8100;50.994;4.538;2022-08-07T11:59:04;23.80;82.50
15991;DHT22;8100;50.994;4.538;2022-08-07T12:01:45;24.00;86.10
15991;DHT22;8100;50.994;4.538;2022-08-07T12:04:37;24.20;85.80
15991;DHT22;8100;50.994;4.538;2022-08-07T12:07:21;24.20;82.30
15991;DHT22;8100;50.994;4.538;2022-08-07T12:09:55;24.00;81.50
15991;DHT22;8100;50.994;4.538;2022-08-07T12:12:26;24.00;80.90
15991;DHT22;8100;50.994;4.538;2022-08-07T12:14:58;24.20;80.20
15991;DHT22;8100;50.994;4.538;2022-08-07T12:17:32;24.00;77.50
15991;DHT22;8100;50.994;4.538;2022-08-07T12:20:07;23.80;75.70
15991;DHT22;8100;50.994;4.538;2022-08-07T12:22:42;23.70;77.10
15991;DHT22;8100;50.994;4.538;2022-08-07T12:25:18;24.00;83.30
15991;DHT22;8100;50.994;4.538;2022-08-07T12:28:14;24.30;79.80
15991;DHT22;8100;50.994;4.538;2022-08-07T12:30:48;24.50;76.70
15991;DHT22;8100;50.994;4.538;2022-08-07T12:33:19;24.00;78.10
15991;DHT22;8100;50.994;4.538;2022-08-07T12:35:50;23.90;77.30
15991;DHT22;8100;50.994;4.538;2022-08-07T12:38:20;24.00;76.20
15991;DHT22;8100;50.994;4.538;2022-08-07T12:40:49;24.00;77.00
15991;DHT22;8100;50.994;4.538;2022-08-07T12:43:21;23.90;73.60
15991;DHT22;8100;50.994;4.538;2022-08-07T12:45:55;24.00;74.50
15991;DHT22;8100;50.994;4.538;2022-08-07T12:51:20;24.00;74.00
15991;DHT22;8100;50.994;4.538;2022-08-07T12:54:00;24.20;76.30
15991;DHT22;8100;50.994;4.538;2022-08-07T12:56:33;24.30;77.10
15991;DHT22;8100;50.994;4.538;2022-08-07T12:59:03;24.60;76.50
15991;DHT22;8100;50.994;4.538;2022-08-07T13:01:44;24.90;75.90
15991;DHT22;8100;50.994;4.538;2022-08-07T13:04:27;25.00;73.20
15991;DHT22;8100;50.994;4.538;2022-08-07T13:07:05;25.10;76.10
15991;DHT22;8100;50.994;4.538;2022-08-07T13:10:02;25.10;74.60
15991;DHT22;8100;50.994;4.538;2022-08-07T13:12:43;24.70;75.10
15991;DHT22;8100;50.994;4.538;2022-08-07T13:15:23;24.90;73.30
15991;DHT22;8100;50.994;4.538;2022-08-07T13:17:57;24.90;74.30
15991;DHT22;8100;50.994;4.538;2022-08-07T13:20:37;25.00;72.80
15991;DHT22;8100;50.994;4.538;2022-08-07T13:23:08;25.00;76.50
15991;DHT22;8100;50.994;4.538;2022-08-07T13:25:41;25.20;73.40
15991;DHT22;8100;50.994;4.538;2022-08-07T13:28:13;25.40;75.70
15991;DHT22;8100;50.994;4.538;2022-08-07T13:30:48;25.40;74.40
15991;DHT22;8100;50.994;4.538;2022-08-07T13:33:23;25.30;72.30
15991;DHT22;8100;50.994;4.538;2022-08-07T13:35:57;25.20;73.00
15991;DHT22;8100;50.994;4.538;2022-08-07T13:38:30;25.20;72.00
15991;DHT22;8100;50.994;4.538;2022-08-07T13:41:08;25.10;74.00
15991;DHT22;8100;50.994;4.538;2022-08-07T13:43:41;25.00;72.50
15991;DHT22;8100;50.994;4.538;2022-08-07T13:46:11;25.20;73.00
15991;DHT22;8100;50.994;4.538;2022-08-07T13:48:43;25.20;72.50
15991;DHT22;8100;50.994;4.538;2022-08-07T13:51:12;25.30;72.80
15991;DHT22;8100;50.994;4.538;2022-08-07T13:53:41;25.30;71.90
15991;DHT22;8100;50.994;4.538;2022-08-07T13:56:16;25.40;71.00
15991;DHT22;8100;50.994;4.538;2022-08-07T13:58:47;25.20;70.80
15991;DHT22;8100;50.994;4.538;2022-08-07T14:01:32;27.20;68.10
15991;DHT22;8100;50.994;4.538;2022-08-07T14:04:05;30.70;64.40
15991;DHT22;8100;50.994;4.538;2022-08-07T14:06:36;32.70;56.20
15991;DHT22;8100;50.994;4.538;2022-08-07T14:09:09;33.80;51.80
15991;DHT22;8100;50.994;4.538;2022-08-07T14:11:45;34.60;47.40
15991;DHT22;8100;50.994;4.538;2022-08-07T14:14:15;35.40;46.30
15991;DHT22;8100;50.994;4.538;2022-08-07T14:16:45;35.30;43.80
15991;DHT22;8100;50.994;4.538;2022-08-07T14:19:22;35.50;42.80
15991;DHT22;8100;50.994;4.538;2022-08-07T14:21:54;35.50;41.00
15991;DHT22;8100;50.994;4.538;2022-08-07T14:24:27;35.60;39.90
15991;DHT22;8100;50.994;4.538;2022-08-07T14:26:58;35.80;39.00
15991;DHT22;8100;50.994;4.538;2022-08-07T14:29:29;35.30;38.30
15991;DHT22;8100;50.994;4.538;2022-08-07T14:32:01;34.90;38.60
15991;DHT22;8100;50.994;4.538;2022-08-07T14:34:31;34.80;38.30
15991;DHT22;8100;50.994;4.538;2022-08-07T14:37:03;36.20;39.00
15991;DHT22;8100;50.994;4.538;2022-08-07T14:39:52;36.70;38.50
15991;DHT22;8100;50.994;4.538;2022-08-07T14:42:42;36.90;36.60
15991;DHT22;8100;50.994;4.538;2022-08-07T14:45:32;37.60;35.40
15991;DHT22;8100;50.994;4.538;2022-08-07T14:48:22;37.50;35.20
15991;DHT22;8100;50.994;4.538;2022-08-07T14:51:11;36.60;36.80
15991;DHT22;8100;50.994;4.538;2022-08-07T14:54:00;38.00;35.70
15991;DHT22;8100;50.994;4.538;2022-08-07T14:56:47;37.40;34.60
15991;DHT22;8100;50.994;4.538;2022-08-07T14:59:39;36.90;35.40
15991;DHT22;8100;50.994;4.538;2022-08-07T15:02:28;36.20;35.00
15991;DHT22;8100;50.994;4.538;2022-08-07T15:05:14;36.80;34.30
15991;DHT22;8100;50.994;4.538;2022-08-07T15:08:05;36.10;35.30
15991;DHT22;8100;50.994;4.538;2022-08-07T15:11:07;35.70;34.20
15991;DHT22;8100;50.994;4.538;2022-08-07T15:13:56;35.30;34.40
15991;DHT22;8100;50.994;4.538;2022-08-07T15:16:47;35.70;34.10
15991;DHT22;8100;50.994;4.538;2022-08-07T15:19:36;34.70;34.90
15991;DHT22;8100;50.994;4.538;2022-08-07T15:22:23;35.10;35.10
15991;DHT22;8100;50.994;4.538;2022-08-07T15:25:13;36.20;35.10
15991;DHT22;8100;50.994;4.538;2022-08-07T15:28:02;36.80;34.10
15991;DHT22;8100;50.994;4.538;2022-08-07T15:30:50;35.30;35.20
15991;DHT22;8100;50.994;4.538;2022-08-07T15:33:40;35.70;33.90
15991;DHT22;8100;50.994;4.538;2022-08-07T15:36:28;36.10;34.00
15991;DHT22;8100;50.994;4.538;2022-08-07T15:39:16;36.70;33.10
15991;DHT22;8100;50.994;4.538;2022-08-07T15:42:04;34.60;34.20
15991;DHT22;8100;50.994;4.538;2022-08-07T15:44:50;35.10;34.80
15991;DHT22;8100;50.994;4.538;2022-08-07T15:47:43;35.90;34.90
15991;DHT22;8100;50.994;4.538;2022-08-07T15:50:37;36.50;33.50
15991;DHT22;8100;50.994;4.538;2022-08-07T15:53:28;36.20;34.10
15991;DHT22;8100;50.994;4.538;2022-08-07T15:56:20;35.50;32.50
15991;DHT22;8100;50.994;4.538;2022-08-07T15:59:08;36.10;32.80
15991;DHT22;8100;50.994;4.538;2022-08-07T16:01:55;36.60;32.40
15991;DHT22;8100;50.994;4.538;2022-08-07T16:04:43;36.90;32.30
15991;DHT22;8100;50.994;4.538;2022-08-07T16:07:31;35.80;31.80
15991;DHT22;8100;50.994;4.538;2022-08-07T16:10:26;35.50;32.80
15991;DHT22;8100;50.994;4.538;2022-08-07T16:13:54;36.10;31.90
15991;DHT22;8100;50.994;4.538;2022-08-07T16:16:53;36.90;31.30
15991;DHT22;8100;50.994;4.538;2022-08-07T16:19:52;36.90;30.80
15991;DHT22;8100;50.994;4.538;2022-08-07T16:22:54;35.90;31.00
15991;DHT22;8100;50.994;4.538;2022-08-07T16:25:54;35.50;31.40
15991;DHT22;8100;50.994;4.538;2022-08-07T16:29:01;35.50;31.90
15991;DHT22;8100;50.994;4.538;2022-08-07T16:31:54;35.50;30.60
15991;DHT22;8100;50.994;4.538;2022-08-07T16:34:46;36.70;30.60
15991;DHT22;8100;50.994;4.538;2022-08-07T16:41:19;33.10;32.30
15991;DHT22;8100;50.994;4.538;2022-08-07T16:44:22;30.00;35.10
15991;DHT22;8100;50.994;4.538;2022-08-07T16:47:28;27.90;38.40
15991;DHT22;8100;50.994;4.538;2022-08-07T16:50:44;26.80;39.10
15991;DHT22;8100;50.994;4.538;2022-08-07T16:53:59;26.10;40.50
15991;DHT22;8100;50.994;4.538;2022-08-07T16:57:00;25.80;41.60
15991;DHT22;8100;50.994;4.538;2022-08-07T16:59:50;25.60;41.50
15991;DHT22;8100;50.994;4.538;2022-08-07T17:03:00;25.40;41.40
15991;DHT22;8100;50.994;4.538;2022-08-07T17:05:59;25.40;41.60
15991;DHT22;8100;50.994;4.538;2022-08-07T17:09:02;25.50;41.10
15991;DHT22;8100;50.994;4.538;2022-08-07T17:11:55;25.40;42.20
15991;DHT22;8100;50.994;4.538;2022-08-07T17:14:49;25.20;41.90
15991;DHT22;8100;50.994;4.538;2022-08-07T17:17:43;25.10;42.80
15991;DHT22;8100;50.994;4.538;2022-08-07T17:20:36;25.00;43.40
15991;DHT22;8100;50.994;4.538;2022-08-07T17:23:35;24.80;43.40
15991;DHT22;8100;50.994;4.538;2022-08-07T17:26:31;24.70;43.30
15991;DHT22;8100;50.994;4.538;2022-08-07T17:29:25;24.50;44.00
15991;DHT22;8100;50.994;4.538;2022-08-07T17:32:19;24.40;43.60
15991;DHT22;8100;50.994;4.538;2022-08-07T17:35:10;24.30;44.00
15991;DHT22;8100;50.994;4.538;2022-08-07T17:37:50;24.20;44.30
15991;DHT22;8100;50.994;4.538;2022-08-07T17:40:44;24.10;44.70
15991;DHT22;8100;50.994;4.538;2022-08-07T17:43:37;24.00;45.00
15991;DHT22;8100;50.994;4.538;2022-08-07T17:46:35;24.00;45.40
15991;DHT22;8100;50.994;4.538;2022-08-07T17:49:27;23.80;47.20
15991;DHT22;8100;50.994;4.538;2022-08-07T17:52:20;23.70;48.90